sensor_id;sensor_type;location;lat;lon;timestamp;P1;durP1;ratioP1;P2;durP2;ratioP2
45322;SDS011;31382;50.200;8.674;2023-08-06T00:00:07;3.45;;;2.70;;
45322;SDS011;31382;50.200;8.674;2023-08-06T00:05:09;5.05;;;2.58;;
45322;SDS011;31382;50.200;8.674;2023-08-06T00:10:11;11.48;;;3.92;;
45322;SDS011;31382;50.200;8.674;2023-08-06T00:15:12;5.32;;;2.75;;
45322;SDS011;31382;50.200;8.674;2023-08-06T00:20:14;4.25;;;2.55;;
45322;SDS011;31382;50.200;8.674;2023-08-06T00:25:15;3.55;;;2.40;;
45322;SDS011;31382;50.200;8.674;2023-08-06T00:30:17;4.93;;;2.42;;
45322;SDS011;31382;50.200;8.674;2023-08-06T00:35:18;5.40;;;2.55;;
45322;SDS011;31382;50.200;8.674;2023-08-06T00:40:20;4.00;;;3.15;;
45322;SDS011;31382;50.200;8.674;2023-08-06T00:45:23;8.02;;;2.83;;
45322;SDS011;31382;50.200;8.674;2023-08-06T00:50:26;3.00;;;2.65;;
45322;SDS011;31382;50.200;8.674;2023-08-06T00:55:27;2.42;;;2.05;;
45322;SDS011;31382;50.200;8.674;2023-08-06T01:00:29;4.43;;;2.40;;
45322;SDS011;31382;50.200;8.674;2023-08-06T01:05:31;6.72;;;2.42;;
45322;SDS011;31382;50.200;8.674;2023-08-06T01:10:49;5.07;;;2.65;;
45322;SDS011;31382;50.200;8.674;2023-08-06T01:16:00;3.05;;;2.38;;
45322;SDS011;31382;50.200;8.674;2023-08-06T01:21:03;4.82;;;2.65;;
45322;SDS011;31382;50.200;8.674;2023-08-06T01:31:30;3.55;;;2.35;;
45322;SDS011;31382;50.200;8.674;2023-08-06T01:36:34;8.07;;;2.85;;
45322;SDS011;31382;50.200;8.674;2023-08-06T01:41:37;3.50;;;2.33;;
45322;SDS011;31382;50.200;8.674;2023-08-06T01:46:38;5.43;;;2.97;;
45322;SDS011;31382;50.200;8.674;2023-08-06T01:51:39;3.47;;;1.92;;
45322;SDS011;31382;50.200;8.674;2023-08-06T01:56:41;2.97;;;2.00;;
45322;SDS011;31382;50.200;8.674;2023-08-06T02:01:42;4.78;;;2.10;;
45322;SDS011;31382;50.200;8.674;2023-08-06T02:06:44;5.38;;;2.22;;
45322;SDS011;31382;50.200;8.674;2023-08-06T02:11:45;3.05;;;1.98;;
45322;SDS011;31382;50.200;8.674;2023-08-06T02:16:46;5.82;;;2.05;;
45322;SDS011;31382;50.200;8.674;2023-08-06T02:21:48;7.72;;;2.25;;
45322;SDS011;31382;50.200;8.674;2023-08-06T02:26:49;3.45;;;2.25;;
45322;SDS011;31382;50.200;8.674;2023-08-06T02:31:52;4.07;;;1.52;;
45322;SDS011;31382;50.200;8.674;2023-08-06T02:36:54;2.75;;;1.65;;
45322;SDS011;31382;50.200;8.674;2023-08-06T02:41:55;2.45;;;1.63;;
45322;SDS011;31382;50.200;8.674;2023-08-06T02:46:57;2.60;;;1.95;;
45322;SDS011;31382;50.200;8.674;2023-08-06T02:51:58;2.78;;;1.77;;
45322;SDS011;31382;50.200;8.674;2023-08-06T02:57:00;3.47;;;1.90;;
45322;SDS011;31382;50.200;8.674;2023-08-06T03:02:01;2.80;;;1.70;;
45322;SDS011;31382;50.200;8.674;2023-08-06T03:07:03;3.78;;;1.67;;
45322;SDS011;31382;50.200;8.674;2023-08-06T03:12:05;2.42;;;1.90;;
45322;SDS011;31382;50.200;8.674;2023-08-06T03:17:06;4.47;;;1.60;;
45322;SDS011;31382;50.200;8.674;2023-08-06T03:22:08;5.28;;;1.40;;
45322;SDS011;31382;50.200;8.674;2023-08-06T03:27:09;2.08;;;1.52;;
45322;SDS011;31382;50.200;8.674;2023-08-06T03:32:11;4.63;;;1.20;;
45322;SDS011;31382;50.200;8.674;2023-08-06T03:37:12;2.58;;;1.10;;
45322;SDS011;31382;50.200;8.674;2023-08-06T03:42:14;2.00;;;1.20;;
45322;SDS011;31382;50.200;8.674;2023-08-06T03:47:15;3.58;;;1.48;;
45322;SDS011;31382;50.200;8.674;2023-08-06T03:52:16;3.88;;;1.00;;
45322;SDS011;31382;50.200;8.674;2023-08-06T03:57:18;2.30;;;1.20;;
45322;SDS011;31382;50.200;8.674;2023-08-06T04:02:19;1.95;;;0.88;;
45322;SDS011;31382;50.200;8.674;2023-08-06T04:07:21;3.20;;;1.10;;
45322;SDS011;31382;50.200;8.674;2023-08-06T04:12:22;2.30;;;0.88;;
45322;SDS011;31382;50.200;8.674;2023-08-06T04:17:24;2.38;;;0.90;;
45322;SDS011;31382;50.200;8.674;2023-08-06T04:22:25;1.67;;;0.80;;
45322;SDS011;31382;50.200;8.674;2023-08-06T04:27:27;3.67;;;0.70;;
45322;SDS011;31382;50.200;8.674;2023-08-06T04:32:28;1.30;;;0.80;;
45322;SDS011;31382;50.200;8.674;2023-08-06T04:37:31;3.70;;;0.70;;
45322;SDS011;31382;50.200;8.674;2023-08-06T04:42:32;4.72;;;0.75;;
45322;SDS011;31382;50.200;8.674;2023-08-06T04:47:34;2.40;;;1.17;;
45322;SDS011;31382;50.200;8.674;2023-08-06T04:52:35;1.15;;;0.77;;
45322;SDS011;31382;50.200;8.674;2023-08-06T04:57:38;2.05;;;0.98;;
45322;SDS011;31382;50.200;8.674;2023-08-06T05:02:39;3.90;;;0.80;;
45322;SDS011;31382;50.200;8.674;2023-08-06T05:07:41;1.77;;;1.17;;
45322;SDS011;31382;50.200;8.674;2023-08-06T05:12:42;2.30;;;0.57;;
45322;SDS011;31382;50.200;8.674;2023-08-06T05:17:43;1.20;;;0.60;;
45322;SDS011;31382;50.200;8.674;2023-08-06T05:22:45;1.85;;;0.40;;
45322;SDS011;31382;50.200;8.674;2023-08-06T05:27:46;2.25;;;0.60;;
45322;SDS011;31382;50.200;8.674;2023-08-06T05:32:47;2.92;;;0.70;;
45322;SDS011;31382;50.200;8.674;2023-08-06T05:37:52;2.75;;;0.50;;
45322;SDS011;31382;50.200;8.674;2023-08-06T05:42:54;2.05;;;0.65;;
45322;SDS011;31382;50.200;8.674;2023-08-06T05:47:56;3.28;;;0.50;;
45322;SDS011;31382;50.200;8.674;2023-08-06T05:52:59;3.22;;;0.45;;
45322;SDS011;31382;50.200;8.674;2023-08-06T05:58:02;2.70;;;0.40;;
45322;SDS011;31382;50.200;8.674;2023-08-06T06:03:03;1.52;;;0.40;;
45322;SDS011;31382;50.200;8.674;2023-08-06T06:08:05;0.85;;;0.30;;
45322;SDS011;31382;50.200;8.674;2023-08-06T06:13:06;0.88;;;0.30;;
45322;SDS011;31382;50.200;8.674;2023-08-06T06:18:10;1.42;;;0.40;;
45322;SDS011;31382;50.200;8.674;2023-08-06T06:23:12;2.83;;;0.30;;
45322;SDS011;31382;50.200;8.674;2023-08-06T06:28:13;3.17;;;0.40;;
45322;SDS011;31382;50.200;8.674;2023-08-06T06:33:15;2.05;;;0.40;;
45322;SDS011;31382;50.200;8.674;2023-08-06T06:38:16;1.13;;;0.32;;
45322;SDS011;31382;50.200;8.674;2023-08-06T06:43:17;3.13;;;0.30;;
45322;SDS011;31382;50.200;8.674;2023-08-06T06:48:19;1.02;;;0.20;;
45322;SDS011;31382;50.200;8.674;2023-08-06T06:53:20;1.58;;;0.30;;
45322;SDS011;31382;50.200;8.674;2023-08-06T06:58:24;0.43;;;0.10;;
45322;SDS011;31382;50.200;8.674;2023-08-06T07:03:25;0.40;;;0.10;;
45322;SDS011;31382;50.200;8.674;2023-08-06T07:08:27;0.20;;;0.10;;
45322;SDS011;31382;50.200;8.674;2023-08-06T07:13:29;0.65;;;0.10;;
45322;SDS011;31382;50.200;8.674;2023-08-06T07:18:31;0.40;;;0.20;;
45322;SDS011;31382;50.200;8.674;2023-08-06T07:23:32;0.95;;;0.38;;
45322;SDS011;31382;50.200;8.674;2023-08-06T07:28:34;0.77;;;0.30;;
45322;SDS011;31382;50.200;8.674;2023-08-06T07:33:35;1.45;;;0.30;;
45322;SDS011;31382;50.200;8.674;2023-08-06T07:38:37;1.30;;;0.20;;
45322;SDS011;31382;50.200;8.674;2023-08-06T07:43:38;0.43;;;0.13;;
45322;SDS011;31382;50.200;8.674;2023-08-06T07:48:40;0.40;;;0.10;;
45322;SDS011;31382;50.200;8.674;2023-08-06T07:53:41;1.00;;;0.10;;
45322;SDS011;31382;50.200;8.674;2023-08-06T07:58:43;0.73;;;0.10;;
45322;SDS011;31382;50.200;8.674;2023-08-06T08:03:44;0.22;;;0.10;;
45322;SDS011;31382;50.200;8.674;2023-08-06T08:08:46;0.57;;;0.45;;
45322;SDS011;31382;50.200;8.674;2023-08-06T08:13:49;0.63;;;0.20;;
45322;SDS011;31382;50.200;8.674;2023-08-06T08:18:50;0.98;;;0.30;;
45322;SDS011;31382;50.200;8.674;2023-08-06T08:23:51;0.30;;;0.10;;
45322;SDS011;31382;50.200;8.674;2023-08-06T08:28:53;1.45;;;0.35;;
45322;SDS011;31382;50.200;8.674;2023-08-06T08:33:55;0.40;;;0.20;;
45322;SDS011;31382;50.200;8.674;2023-08-06T08:39:00;0.82;;;0.20;;
45322;SDS011;31382;50.200;8.674;2023-08-06T08:44:01;0.82;;;0.10;;
45322;SDS011;31382;50.200;8.674;2023-08-06T08:49:03;1.00;;;0.10;;
45322;SDS011;31382;50.200;8.674;2023-08-06T08:54:04;0.60;;;0.10;;
45322;SDS011;31382;50.200;8.674;2023-08-06T08:59:09;0.93;;;0.13;;
45322;SDS011;31382;50.200;8.674;2023-08-06T09:04:11;0.10;;;0.10;;
45322;SDS011;31382;50.200;8.674;2023-08-06T09:09:13;0.30;;;0.22;;
45322;SDS011;31382;50.200;8.674;2023-08-06T09:14:20;1.02;;;0.20;;
45322;SDS011;31382;50.200;8.674;2023-08-06T09:19:22;0.63;;;0.10;;
45322;SDS011;31382;50.200;8.674;2023-08-06T09:24:23;0.50;;;0.10;;
45322;SDS011;31382;50.200;8.674;2023-08-06T09:29:25;0.50;;;0.20;;
45322;SDS011;31382;50.200;8.674;2023-08-06T09:34:32;0.38;;;0.10;;
45322;SDS011;31382;50.200;8.674;2023-08-06T09:39:34;0.30;;;0.10;;
45322;SDS011;31382;50.200;8.674;2023-08-06T09:44:35;0.03;;;0.00;;
45322;SDS011;31382;50.200;8.674;2023-08-06T09:49:40;0.52;;;0.13;;
45322;SDS011;31382;50.200;8.674;2023-08-06T09:54:46;0.10;;;0.00;;
45322;SDS011;31382;50.200;8.674;2023-08-06T09:59:49;0.00;;;0.00;;
45322;SDS011;31382;50.200;8.674;2023-08-06T10:04:52;0.60;;;0.10;;
45322;SDS011;31382;50.200;8.674;2023-08-06T10:09:56;0.00;;;0.00;;
45322;SDS011;31382;50.200;8.674;2023-08-06T10:14:59;0.03;;;0.00;;
45322;SDS011;31382;50.200;8.674;2023-08-06T10:20:07;1.08;;;0.00;;
45322;SDS011;31382;50.200;8.674;2023-08-06T10:25:09;0.00;;;0.00;;
45322;SDS011;31382;50.200;8.674;2023-08-06T10:30:27;0.40;;;0.10;;
45322;SDS011;31382;50.200;8.674;2023-08-06T10:40:39;0.10;;;0.00;;
45322;SDS011;31382;50.200;8.674;2023-08-06T10:45:42;0.10;;;0.10;;
45322;SDS011;31382;50.200;8.674;2023-08-06T10:50:52;1.05;;;0.10;;
45322;SDS011;31382;50.200;8.674;2023-08-06T10:55:53;0.08;;;0.00;;
45322;SDS011;31382;50.200;8.674;2023-08-06T11:00:55;0.20;;;0.00;;
45322;SDS011;31382;50.200;8.674;2023-08-06T11:05:57;0.20;;;0.00;;
45322;SDS011;31382;50.200;8.674;2023-08-06T11:11:08;0.00;;;0.00;;
45322;SDS011;31382;50.200;8.674;2023-08-06T11:16:18;0.00;;;0.00;;
45322;SDS011;31382;50.200;8.674;2023-08-06T11:21:21;0.00;;;0.00;;
45322;SDS011;31382;50.200;8.674;2023-08-06T11:26:25;0.00;;;0.00;;
45322;SDS011;31382;50.200;8.674;2023-08-06T11:31:28;0.08;;;0.00;;
45322;SDS011;31382;50.200;8.674;2023-08-06T11:36:30;0.00;;;0.00;;
45322;SDS011;31382;50.200;8.674;2023-08-06T11:41:32;0.05;;;0.00;;
45322;SDS011;31382;50.200;8.674;2023-08-06T11:46:49;0.75;;;0.00;;
45322;SDS011;31382;50.200;8.674;2023-08-06T11:51:56;5.03;;;0.17;;
45322;SDS011;31382;50.200;8.674;2023-08-06T11:56:58;1.77;;;0.10;;
45322;SDS011;31382;50.200;8.674;2023-08-06T12:02:00;1.40;;;0.10;;
45322;SDS011;31382;50.200;8.674;2023-08-06T12:07:06;0.00;;;0.00;;
45322;SDS011;31382;50.200;8.674;2023-08-06T12:12:10;0.00;;;0.00;;
45322;SDS011;31382;50.200;8.674;2023-08-06T12:17:12;1.02;;;0.00;;
45322;SDS011;31382;50.200;8.674;2023-08-06T12:22:13;0.00;;;0.00;;
45322;SDS011;31382;50.200;8.674;2023-08-06T12:27:15;0.00;;;0.00;;
45322;SDS011;31382;50.200;8.674;2023-08-06T12:32:19;0.00;;;0.00;;
45322;SDS011;31382;50.200;8.674;2023-08-06T12:37:21;0.38;;;0.00;;
45322;SDS011;31382;50.200;8.674;2023-08-06T12:42:22;2.17;;;0.00;;
45322;SDS011;31382;50.200;8.674;2023-08-06T12:47:25;0.38;;;0.00;;
45322;SDS011;31382;50.200;8.674;2023-08-06T12:52:26;0.10;;;0.00;;
45322;SDS011;31382;50.200;8.674;2023-08-06T12:57:28;0.20;;;0.00;;
45322;SDS011;31382;50.200;8.674;2023-08-06T13:02:50;0.20;;;0.00;;
45322;SDS011;31382;50.200;8.674;2023-08-06T13:07:52;0.28;;;0.00;;
45322;SDS011;31382;50.200;8.674;2023-08-06T13:12:53;0.10;;;0.00;;
45322;SDS011;31382;50.200;8.674;2023-08-06T13:17:55;0.17;;;0.08;;
45322;SDS011;31382;50.200;8.674;2023-08-06T13:22:58;0.60;;;0.00;;
45322;SDS011;31382;50.200;8.674;2023-08-06T13:27:59;0.20;;;0.10;;
45322;SDS011;31382;50.200;8.674;2023-08-06T13:33:01;0.00;;;0.00;;
45322;SDS011;31382;50.200;8.674;2023-08-06T13:38:02;0.03;;;0.00;;
45322;SDS011;31382;50.200;8.674;2023-08-06T13:43:04;0.68;;;0.00;;
45322;SDS011;31382;50.200;8.674;2023-08-06T13:48:05;0.80;;;0.00;;
45322;SDS011;31382;50.200;8.674;2023-08-06T13:53:07;1.75;;;0.00;;
45322;SDS011;31382;50.200;8.674;2023-08-06T13:58:09;0.45;;;0.10;;
45322;SDS011;31382;50.200;8.674;2023-08-06T14:03:10;0.20;;;0.10;;
45322;SDS011;31382;50.200;8.674;2023-08-06T14:08:12;0.00;;;0.00;;
45322;SDS011;31382;50.200;8.674;2023-08-06T14:13:14;0.85;;;0.10;;
45322;SDS011;31382;50.200;8.674;2023-08-06T14:18:16;1.05;;;0.10;;
45322;SDS011;31382;50.200;8.674;2023-08-06T14:23:18;0.10;;;0.08;;
45322;SDS011;31382;50.200;8.674;2023-08-06T14:28:19;2.20;;;0.08;;
45322;SDS011;31382;50.200;8.674;2023-08-06T14:33:21;0.43;;;0.00;;
45322;SDS011;31382;50.200;8.674;2023-08-06T14:38:28;0.10;;;0.00;;
45322;SDS011;31382;50.200;8.674;2023-08-06T14:43:29;0.00;;;0.00;;
45322;SDS011;31382;50.200;8.674;2023-08-06T14:48:31;0.65;;;0.00;;
45322;SDS011;31382;50.200;8.674;2023-08-06T14:53:32;0.00;;;0.00;;
45322;SDS011;31382;50.200;8.674;2023-08-06T14:58:33;0.25;;;0.10;;
45322;SDS011;31382;50.200;8.674;2023-08-06T15:03:35;0.00;;;0.00;;
45322;SDS011;31382;50.200;8.674;2023-08-06T15:08:36;0.47;;;0.03;;
45322;SDS011;31382;50.200;8.674;2023-08-06T15:13:38;0.00;;;0.00;;
45322;SDS011;31382;50.200;8.674;2023-08-06T15:18:39;0.13;;;0.00;;
45322;SDS011;31382;50.200;8.674;2023-08-06T15:23:41;0.22;;;0.00;;
45322;SDS011;31382;50.200;8.674;2023-08-06T15:28:42;0.80;;;0.03;;
45322;SDS011;31382;50.200;8.674;2023-08-06T15:33:43;0.60;;;0.00;;
45322;SDS011;31382;50.200;8.674;2023-08-06T15:38:45;0.13;;;0.08;;
45322;SDS011;31382;50.200;8.674;2023-08-06T15:43:46;0.17;;;0.03;;
45322;SDS011;31382;50.200;8.674;2023-08-06T15:48:48;1.05;;;0.00;;
45322;SDS011;31382;50.200;8.674;2023-08-06T15:53:49;0.10;;;0.00;;
45322;SDS011;31382;50.200;8.674;2023-08-06T15:58:50;0.28;;;0.10;;
45322;SDS011;31382;50.200;8.674;2023-08-06T16:03:52;0.20;;;0.10;;
45322;SDS011;31382;50.200;8.674;2023-08-06T16:08:53;0.82;;;0.10;;
45322;SDS011;31382;50.200;8.674;2023-08-06T16:13:54;0.43;;;0.40;;
45322;SDS011;31382;50.200;8.674;2023-08-06T16:18:56;0.80;;;0.00;;
45322;SDS011;31382;50.200;8.674;2023-08-06T16:23:57;0.52;;;0.08;;
45322;SDS011;31382;50.200;8.674;2023-08-06T16:28:59;0.10;;;0.00;;
45322;SDS011;31382;50.200;8.674;2023-08-06T16:34:00;0.43;;;0.00;;
45322;SDS011;31382;50.200;8.674;2023-08-06T16:39:02;0.10;;;0.05;;
45322;SDS011;31382;50.200;8.674;2023-08-06T16:44:04;1.45;;;0.08;;
45322;SDS011;31382;50.200;8.674;2023-08-06T16:49:07;0.73;;;0.00;;
45322;SDS011;31382;50.200;8.674;2023-08-06T16:54:09;0.20;;;0.00;;
45322;SDS011;31382;50.200;8.674;2023-08-06T16:59:10;0.10;;;0.08;;
45322;SDS011;31382;50.200;8.674;2023-08-06T17:04:12;0.20;;;0.10;;
45322;SDS011;31382;50.200;8.674;2023-08-06T17:09:13;0.85;;;0.03;;
45322;SDS011;31382;50.200;8.674;2023-08-06T17:14:15;1.05;;;0.00;;
45322;SDS011;31382;50.200;8.674;2023-08-06T17:19:16;0.95;;;0.20;;
45322;SDS011;31382;50.200;8.674;2023-08-06T17:24:18;0.82;;;0.68;;
45322;SDS011;31382;50.200;8.674;2023-08-06T17:29:20;0.00;;;0.00;;
45322;SDS011;31382;50.200;8.674;2023-08-06T17:34:21;0.38;;;0.00;;
45322;SDS011;31382;50.200;8.674;2023-08-06T17:39:23;0.10;;;0.00;;
45322;SDS011;31382;50.200;8.674;2023-08-06T17:44:24;1.48;;;0.00;;
45322;SDS011;31382;50.200;8.674;2023-08-06T17:49:27;0.00;;;0.00;;
45322;SDS011;31382;50.200;8.674;2023-08-06T17:54:28;0.10;;;0.00;;
45322;SDS011;31382;50.200;8.674;2023-08-06T17:59:30;0.20;;;0.10;;
45322;SDS011;31382;50.200;8.674;2023-08-06T18:04:32;0.20;;;0.00;;
45322;SDS011;31382;50.200;8.674;2023-08-06T18:09:33;0.43;;;0.10;;
45322;SDS011;31382;50.200;8.674;2023-08-06T18:14:35;0.10;;;0.10;;
45322;SDS011;31382;50.200;8.674;2023-08-06T18:19:37;1.17;;;0.00;;
45322;SDS011;31382;50.200;8.674;2023-08-06T18:24:39;0.10;;;0.00;;
45322;SDS011;31382;50.200;8.674;2023-08-06T18:29:40;0.10;;;0.00;;
45322;SDS011;31382;50.200;8.674;2023-08-06T18:34:42;0.57;;;0.00;;
45322;SDS011;31382;50.200;8.674;2023-08-06T18:39:43;0.77;;;0.10;;
45322;SDS011;31382;50.200;8.674;2023-08-06T18:44:44;0.30;;;0.10;;
45322;SDS011;31382;50.200;8.674;2023-08-06T18:49:46;0.05;;;0.00;;
45322;SDS011;31382;50.200;8.674;2023-08-06T18:54:47;0.15;;;0.05;;
45322;SDS011;31382;50.200;8.674;2023-08-06T18:59:49;1.30;;;0.20;;
45322;SDS011;31382;50.200;8.674;2023-08-06T19:04:54;0.30;;;0.10;;
45322;SDS011;31382;50.200;8.674;2023-08-06T19:09:55;0.20;;;0.05;;
45322;SDS011;31382;50.200;8.674;2023-08-06T19:14:57;0.10;;;0.10;;
45322;SDS011;31382;50.200;8.674;2023-08-06T19:19:58;3.78;;;1.17;;
45322;SDS011;31382;50.200;8.674;2023-08-06T19:24:59;0.10;;;0.00;;
45322;SDS011;31382;50.200;8.674;2023-08-06T19:30:01;0.10;;;0.10;;
45322;SDS011;31382;50.200;8.674;2023-08-06T19:35:03;0.28;;;0.10;;
45322;SDS011;31382;50.200;8.674;2023-08-06T19:40:05;0.03;;;0.00;;
45322;SDS011;31382;50.200;8.674;2023-08-06T19:45:09;0.10;;;0.10;;
45322;SDS011;31382;50.200;8.674;2023-08-06T19:50:12;0.00;;;0.00;;
45322;SDS011;31382;50.200;8.674;2023-08-06T19:55:13;0.20;;;0.10;;
45322;SDS011;31382;50.200;8.674;2023-08-06T20:00:14;0.40;;;0.15;;
45322;SDS011;31382;50.200;8.674;2023-08-06T20:05:17;2.25;;;0.20;;
45322;SDS011;31382;50.200;8.674;2023-08-06T20:10:19;0.20;;;0.10;;
45322;SDS011;31382;50.200;8.674;2023-08-06T20:15:20;0.80;;;0.10;;
45322;SDS011;31382;50.200;8.674;2023-08-06T20:20:22;0.15;;;0.00;;
45322;SDS011;31382;50.200;8.674;2023-08-06T20:25:23;0.20;;;0.00;;
45322;SDS011;31382;50.200;8.674;2023-08-06T20:30:24;0.32;;;0.10;;
45322;SDS011;31382;50.200;8.674;2023-08-06T20:35:26;0.47;;;0.10;;
45322;SDS011;31382;50.200;8.674;2023-08-06T20:40:28;0.20;;;0.13;;
45322;SDS011;31382;50.200;8.674;2023-08-06T20:45:29;0.20;;;0.10;;
45322;SDS011;31382;50.200;8.674;2023-08-06T20:50:30;0.98;;;0.60;;
45322;SDS011;31382;50.200;8.674;2023-08-06T20:55:32;0.00;;;0.00;;
45322;SDS011;31382;50.200;8.674;2023-08-06T21:00:33;1.17;;;0.00;;
45322;SDS011;31382;50.200;8.674;2023-08-06T21:05:35;0.00;;;0.00;;
45322;SDS011;31382;50.200;8.674;2023-08-06T21:10:36;0.05;;;0.03;;
45322;SDS011;31382;50.200;8.674;2023-08-06T21:15:37;0.10;;;0.10;;
45322;SDS011;31382;50.200;8.674;2023-08-06T21:20:39;0.93;;;0.30;;
45322;SDS011;31382;50.200;8.674;2023-08-06T21:25:40;1.30;;;0.40;;
45322;SDS011;31382;50.200;8.674;2023-08-06T21:30:43;0.75;;;0.45;;
45322;SDS011;31382;50.200;8.674;2023-08-06T21:35:44;0.65;;;0.50;;
45322;SDS011;31382;50.200;8.674;2023-08-06T21:40:46;0.40;;;0.40;;
45322;SDS011;31382;50.200;8.674;2023-08-06T21:45:47;0.63;;;0.30;;
45322;SDS011;31382;50.200;8.674;2023-08-06T21:50:49;1.80;;;0.68;;
45322;SDS011;31382;50.200;8.674;2023-08-06T21:55:50;0.70;;;0.38;;
45322;SDS011;31382;50.200;8.674;2023-08-06T22:00:52;2.80;;;0.40;;
45322;SDS011;31382;50.200;8.674;2023-08-06T22:05:54;1.63;;;0.40;;
45322;SDS011;31382;50.200;8.674;2023-08-06T22:10:55;1.15;;;0.30;;
45322;SDS011;31382;50.200;8.674;2023-08-06T22:15:58;0.80;;;0.30;;
45322;SDS011;31382;50.200;8.674;2023-08-06T22:20:59;2.13;;;0.30;;
45322;SDS011;31382;50.200;8.674;2023-08-06T22:26:01;0.52;;;0.20;;
45322;SDS011;31382;50.200;8.674;2023-08-06T22:31:04;2.53;;;0.30;;
45322;SDS011;31382;50.200;8.674;2023-08-06T22:36:05;1.48;;;0.30;;
45322;SDS011;31382;50.200;8.674;2023-08-06T22:41:08;0.85;;;0.40;;
45322;SDS011;31382;50.200;8.674;2023-08-06T22:46:12;2.00;;;0.40;;
45322;SDS011;31382;50.200;8.674;2023-08-06T22:51:16;1.10;;;0.30;;
45322;SDS011;31382;50.200;8.674;2023-08-06T22:56:18;4.15;;;0.32;;
45322;SDS011;31382;50.200;8.674;2023-08-06T23:01:19;1.05;;;0.30;;
45322;SDS011;31382;50.200;8.674;2023-08-06T23:06:21;0.28;;;0.20;;
45322;SDS011;31382;50.200;8.674;2023-08-06T23:11:22;0.88;;;0.20;;
45322;SDS011;31382;50.200;8.674;2023-08-06T23:16:24;1.00;;;0.10;;
45322;SDS011;31382;50.200;8.674;2023-08-06T23:21:25;1.75;;;0.10;;
45322;SDS011;31382;50.200;8.674;2023-08-06T23:26:27;2.95;;;0.13;;
45322;SDS011;31382;50.200;8.674;2023-08-06T23:31:28;0.70;;;0.20;;
45322;SDS011;31382;50.200;8.674;2023-08-06T23:36:30;1.52;;;0.20;;
45322;SDS011;31382;50.200;8.674;2023-08-06T23:41:31;1.10;;;0.10;;
45322;SDS011;31382;50.200;8.674;2023-08-06T23:46:32;1.65;;;0.17;;
45322;SDS011;31382;50.200;8.674;2023-08-06T23:51:34;0.43;;;0.08;;
45322;SDS011;31382;50.200;8.674;2023-08-06T23:56:36;0.20;;;0.10;;
